Time;durP1;ratioP1;P1;durP2;ratioP2;P2;SDS_P1;SDS_P2;PMS_P1;PMS_P2;Temp;Humidity;BMP_temperature;BMP_pressure;BME280_temperature;BME280_humidity;BME280_pressure;Samples;Min_cycle;Max_cycle;Signal;HPM_P1;HPM_P2
2023/08/15 00:02:45;;;;;;;4.07;2.92;;;;;;;;;;5847190;28;20080;-72
2023/08/15 00:05:43;;;;;;;2.58;1.80;;;;;;;;;;5859815;28;20496;-72
2023/08/15 00:08:34;;;;;;;2.70;2.45;;;;;;;;;;5861038;28;20064;-73
2023/08/15 00:11:31;;;;;;;3.72;2.60;;;;;;;;;;5861359;28;20057;-73
2023/08/15 00:14:21;;;;;;;2.40;1.80;;;;;;;;;;5862957;28;20049;-72
2023/08/15 00:17:19;;;;;;;2.63;1.67;;;;;;;;;;5862862;28;20388;-72
2023/08/15 00:20:10;;;;;;;4.03;2.55;;;;;;;;;;5863245;28;20052;-73
2023/08/15 00:23:08;;;;;;;2.28;1.95;;;;;;;;;;5862741;28;20050;-72
2023/08/15 00:25:58;;;;;;;3.13;2.35;;;;;;;;;;5862679;28;20059;-72
2023/08/15 00:28:56;;;;;;;2.67;2.08;;;;;;;;;;5845797;28;20060;-72
2023/08/15 00:31:53;;;;;;;2.50;2.15;;;;;;;;;;5862675;28;20049;-73
2023/08/15 00:34:43;;;;;;;2.15;1.88;;;;;;;;;;5862802;28;20050;-72
2023/08/15 00:37:41;;;;;;;3.10;1.65;;;;;;;;;;5862877;28;20092;-72
2023/08/15 00:40:31;;;;;;;6.72;2.35;;;;;;;;;;5862264;28;20052;-72
2023/08/15 00:43:29;;;;;;;1.95;1.50;;;;;;;;;;5830839;28;20408;-72
2023/08/15 00:46:19;;;;;;;3.17;2.28;;;;;;;;;;5862530;28;20041;-73
2023/08/15 00:49:18;;;;;;;2.28;1.98;;;;;;;;;;5862125;28;20081;-72
2023/08/15 00:52:12;;;;;;;2.20;1.83;;;;;;;;;;5861292;28;20046;-72
2023/08/15 00:55:10;;;;;;;2.13;1.88;;;;;;;;;;5844517;28;20055;-72
2023/08/15 00:58:01;;;;;;;16.58;2.38;;;;;;;;;;5860963;28;20050;-73
2023/08/15 01:00:59;;;;;;;3.00;1.80;;;;;;;;;;5860706;28;20037;-72
2023/08/15 01:03:51;;;;;;;2.05;1.85;;;;;;;;;;5861297;28;20618;-72
2023/08/15 01:06:49;;;;;;;3.70;2.25;;;;;;;;;;5861023;28;20049;-73
2023/08/15 01:09:39;;;;;;;4.22;2.25;;;;;;;;;;5861654;28;20049;-73
2023/08/15 01:12:47;;;;;;;1.42;1.33;;;;;;;;;;5861910;28;20491;-72
2023/08/15 01:15:44;;;;;;;3.35;2.78;;;;;;;;;;5844526;28;20049;-73
2023/08/15 01:18:48;;;;;;;2.28;1.63;;;;;;;;;;5860840;28;20057;-73
2023/08/15 01:21:46;;;;;;;2.95;1.90;;;;;;;;;;5844587;28;20038;-72
2023/08/15 01:24:45;;;;;;;3.35;2.45;;;;;;;;;;5862165;28;20052;-72
2023/08/15 01:27:36;;;;;;;2.08;1.88;;;;;;;;;;5861866;28;20064;-73
2023/08/15 01:30:33;;;;;;;2.67;2.20;;;;;;;;;;5861438;28;20056;-72
2023/08/15 01:33:38;;;;;;;3.15;2.40;;;;;;;;;;5843924;28;20053;-72
2023/08/15 01:36:45;;;;;;;2.55;2.13;;;;;;;;;;5845822;28;20457;-72
2023/08/15 01:39:38;;;;;;;3.30;1.58;;;;;;;;;;5844472;28;20057;-72
2023/08/15 01:42:39;;;;;;;3.38;2.35;;;;;;;;;;5845237;28;20065;-72
2023/08/15 01:45:31;;;;;;;2.33;1.95;;;;;;;;;;5861405;28;20638;-73
2023/08/15 01:48:29;;;;;;;3.50;1.83;;;;;;;;;;5860636;28;20492;-73
2023/08/15 01:51:19;;;;;;;2.70;2.13;;;;;;;;;;5843500;28;20456;-72
2023/08/15 01:54:17;;;;;;;2.53;2.08;;;;;;;;;;5861671;28;20053;-73
2023/08/15 01:57:08;;;;;;;5.35;2.10;;;;;;;;;;5861532;28;20049;-72
2023/08/15 02:00:06;;;;;;;3.50;2.05;;;;;;;;;;5861174;28;20063;-73
2023/08/15 02:02:56;;;;;;;2.97;1.98;;;;;;;;;;5843931;28;20045;-73
2023/08/15 02:05:54;;;;;;;1.98;1.60;;;;;;;;;;5844692;28;20497;-73
2023/08/15 02:08:51;;;;;;;2.35;2.15;;;;;;;;;;5861230;28;20132;-73
2023/08/15 02:11:41;;;;;;;3.40;2.35;;;;;;;;;;5843719;28;20049;-73
2023/08/15 02:14:39;;;;;;;3.67;2.22;;;;;;;;;;5861319;28;20048;-73
2023/08/15 02:17:29;;;;;;;2.42;1.98;;;;;;;;;;5861577;28;20205;-73
2023/08/15 02:20:27;;;;;;;2.45;1.92;;;;;;;;;;5861026;28;20490;-72
2023/08/15 02:23:17;;;;;;;4.50;2.50;;;;;;;;;;5861255;28;20049;-73
2023/08/15 02:26:15;;;;;;;2.40;1.73;;;;;;;;;;5861014;28;20053;-73
2023/08/15 02:29:05;;;;;;;6.18;2.30;;;;;;;;;;5863918;28;20049;-72
2023/08/15 02:32:03;;;;;;;2.45;1.80;;;;;;;;;;5865275;28;20052;-73
2023/08/15 02:34:54;;;;;;;3.60;2.00;;;;;;;;;;5865650;28;20081;-72
2023/08/15 02:37:51;;;;;;;2.63;1.92;;;;;;;;;;5865389;28;20053;-73
2023/08/15 02:40:48;;;;;;;1.67;1.58;;;;;;;;;;5865123;28;20076;-73
2023/08/15 02:43:46;;;;;;;2.22;1.85;;;;;;;;;;5864812;28;20052;-73
2023/08/15 02:46:36;;;;;;;1.80;1.48;;;;;;;;;;5864690;28;20128;-73
2023/08/15 02:49:34;;;;;;;4.45;2.38;;;;;;;;;;5865184;28;20060;-72
2023/08/15 02:52:24;;;;;;;7.30;2.25;;;;;;;;;;5865189;28;20642;-73
2023/08/15 02:55:22;;;;;;;3.65;2.35;;;;;;;;;;5864523;28;20055;-73
2023/08/15 02:58:12;;;;;;;2.75;2.22;;;;;;;;;;5865091;28;20424;-73
2023/08/15 03:01:10;;;;;;;3.97;2.22;;;;;;;;;;5864497;28;20248;-73
2023/08/15 03:04:01;;;;;;;3.05;2.17;;;;;;;;;;5864275;28;20317;-73
2023/08/15 03:06:58;;;;;;;2.67;2.00;;;;;;;;;;5864454;28;20128;-72
2023/08/15 03:09:48;;;;;;;4.43;2.53;;;;;;;;;;5864542;28;20132;-73
2023/08/15 03:12:46;;;;;;;2.03;1.67;;;;;;;;;;5864666;28;20056;-73
2023/08/15 03:15:52;;;;;;;2.47;2.13;;;;;;;;;;5864303;28;20476;-72
2023/08/15 03:18:43;;;;;;;1.90;1.60;;;;;;;;;;5846888;28;20052;-73
2023/08/15 03:21:40;;;;;;;3.42;2.35;;;;;;;;;;5863908;28;20052;-73
2023/08/15 03:24:30;;;;;;;7.72;2.13;;;;;;;;;;5846572;28;20060;-72
2023/08/15 03:27:28;;;;;;;5.57;3.10;;;;;;;;;;5864001;28;20059;-72
2023/08/15 03:30:18;;;;;;;8.85;3.40;;;;;;;;;;5863713;28;20053;-72
2023/08/15 03:33:16;;;;;;;3.22;2.33;;;;;;;;;;5863567;28;20050;-72
2023/08/15 03:36:07;;;;;;;4.10;1.58;;;;;;;;;;5864158;28;20096;-73
2023/08/15 03:39:05;;;;;;;2.03;1.85;;;;;;;;;;5846638;28;20143;-73
2023/08/15 03:41:55;;;;;;;3.05;2.35;;;;;;;;;;5846310;28;20076;-73
2023/08/15 03:44:53;;;;;;;6.93;3.03;;;;;;;;;;5864015;28;20042;-73
2023/08/15 03:47:43;;;;;;;3.00;1.77;;;;;;;;;;5863426;28;20050;-73
2023/08/15 03:50:41;;;;;;;2.67;2.17;;;;;;;;;;5863298;28;20053;-72
2023/08/15 03:53:31;;;;;;;17.92;2.53;;;;;;;;;;5863109;28;20056;-73
2023/08/15 03:56:29;;;;;;;2.90;1.80;;;;;;;;;;5863268;28;20051;-73
2023/08/15 03:59:19;;;;;;;12.27;2.67;;;;;;;;;;5863721;28;20053;-73
2023/08/15 04:02:17;;;;;;;3.25;2.22;;;;;;;;;;5863403;28;20474;-73
2023/08/15 04:05:07;;;;;;;3.67;2.22;;;;;;;;;;5863621;28;20052;-73
2023/08/15 04:08:05;;;;;;;3.95;2.00;;;;;;;;;;5862970;28;20144;-73
2023/08/15 04:10:56;;;;;;;4.05;2.90;;;;;;;;;;5863246;28;20465;-72
2023/08/15 04:13:54;;;;;;;6.18;2.28;;;;;;;;;;5863694;28;20049;-73
2023/08/15 04:16:44;;;;;;;4.80;2.53;;;;;;;;;;5863213;28;20049;-72
2023/08/15 04:19:42;;;;;;;2.08;1.88;;;;;;;;;;5862916;28;20465;-73
2023/08/15 04:22:32;;;;;;;3.50;2.00;;;;;;;;;;5863552;28;20044;-73
2023/08/15 04:25:30;;;;;;;2.80;1.85;;;;;;;;;;5862553;28;20266;-72
2023/08/15 04:28:27;;;;;;;8.88;2.30;;;;;;;;;;5862609;28;20053;-72
2023/08/15 04:31:25;;;;;;;10.43;3.35;;;;;;;;;;5846553;28;20123;-73
2023/08/15 04:34:16;;;;;;;7.88;2.75;;;;;;;;;;5844991;28;20057;-72
2023/08/15 04:37:14;;;;;;;3.10;2.20;;;;;;;;;;5862658;28;20053;-73
2023/08/15 04:40:05;;;;;;;3.00;2.00;;;;;;;;;;5862597;28;20041;-73
2023/08/15 04:43:03;;;;;;;6.65;2.75;;;;;;;;;;5862904;28;20477;-72
2023/08/15 04:45:54;;;;;;;7.70;2.85;;;;;;;;;;5863121;28;20042;-72
2023/08/15 04:48:52;;;;;;;7.60;2.53;;;;;;;;;;5862390;28;20057;-73
2023/08/15 04:51:43;;;;;;;3.03;2.33;;;;;;;;;;5862476;28;20052;-72
2023/08/15 04:54:40;;;;;;;5.82;3.00;;;;;;;;;;5845888;28;20056;-72
2023/08/15 04:57:31;;;;;;;2.80;2.33;;;;;;;;;;5862664;28;20049;-73
2023/08/15 05:00:29;;;;;;;2.88;2.15;;;;;;;;;;5861941;28;20059;-73
2023/08/15 05:03:24;;;;;;;3.92;2.30;;;;;;;;;;5862709;28;20377;-73
2023/08/15 05:06:21;;;;;;;6.28;2.67;;;;;;;;;;5862150;28;20076;-72
2023/08/15 05:09:19;;;;;;;2.90;2.25;;;;;;;;;;5862278;28;20501;-73
2023/08/15 05:12:09;;;;;;;4.78;3.08;;;;;;;;;;5861969;28;20042;-73
2023/08/15 05:15:10;;;;;;;3.30;2.70;;;;;;;;;;5861749;28;20057;-73
2023/08/15 05:18:01;;;;;;;3.85;2.90;;;;;;;;;;5861944;28;20049;-73
2023/08/15 05:20:58;;;;;;;3.30;1.90;;;;;;;;;;5861457;28;20045;-72
2023/08/15 05:23:55;;;;;;;2.72;1.75;;;;;;;;;;5861110;28;20256;-72
2023/08/15 05:26:45;;;;;;;3.88;2.47;;;;;;;;;;5860227;28;20045;-73
2023/08/15 05:29:43;;;;;;;1.60;1.50;;;;;;;;;;5859921;28;20468;-73
2023/08/15 05:32:34;;;;;;;2.30;1.77;;;;;;;;;;5860084;28;20037;-72
2023/08/15 05:35:32;;;;;;;6.90;2.28;;;;;;;;;;5859921;28;20045;-73
2023/08/15 05:38:23;;;;;;;5.30;2.63;;;;;;;;;;5861204;28;20077;-72
2023/08/15 05:41:21;;;;;;;4.20;2.15;;;;;;;;;;5861139;28;20053;-73
2023/08/15 05:44:11;;;;;;;3.17;2.47;;;;;;;;;;5861320;28;20057;-73
2023/08/15 05:47:08;;;;;;;9.07;2.72;;;;;;;;;;5861062;28;20049;-73
2023/08/15 05:49:59;;;;;;;3.75;2.10;;;;;;;;;;5861685;28;20408;-73
2023/08/15 05:52:57;;;;;;;2.17;1.93;;;;;;;;;;5861504;28;20131;-74
2023/08/15 05:55:47;;;;;;;10.13;2.35;;;;;;;;;;5860720;28;20090;-73
2023/08/15 05:58:45;;;;;;;2.97;1.67;;;;;;;;;;5844559;28;20046;-73
2023/08/15 06:01:35;;;;;;;6.28;1.75;;;;;;;;;;5860396;28;20053;-73
2023/08/15 06:04:33;;;;;;;11.07;2.40;;;;;;;;;;5864213;28;20060;-73
2023/08/15 06:07:24;;;;;;;1.48;1.10;;;;;;;;;;5865947;28;20057;-73
2023/08/15 06:10:20;;;;;;;3.00;1.73;;;;;;;;;;5864862;28;20060;-73
2023/08/15 06:13:11;;;;;;;1.65;1.48;;;;;;;;;;5865380;28;20072;-74
2023/08/15 06:16:09;;;;;;;5.82;1.67;;;;;;;;;;5865270;28;20152;-74
2023/08/15 06:19:03;;;;;;;1.60;1.45;;;;;;;;;;5865369;28;20144;-74
2023/08/15 06:22:00;;;;;;;6.70;1.77;;;;;;;;;;5865298;28;20237;-73
2023/08/15 06:24:51;;;;;;;3.60;1.48;;;;;;;;;;5865072;28;20050;-73
2023/08/15 06:27:49;;;;;;;1.70;1.20;;;;;;;;;;5865170;28;20369;-73
2023/08/15 06:30:42;;;;;;;1.83;1.42;;;;;;;;;;5864622;28;20177;-73
2023/08/15 06:33:40;;;;;;;4.25;2.00;;;;;;;;;;5864345;28;20084;-74
2023/08/15 06:36:31;;;;;;;2.47;1.55;;;;;;;;;;5864502;28;20041;-74
2023/08/15 06:39:29;;;;;;;1.60;1.10;;;;;;;;;;5864866;28;20056;-74
2023/08/15 06:42:19;;;;;;;2.75;1.40;;;;;;;;;;5864918;28;20789;-74
2023/08/15 06:45:18;;;;;;;3.72;1.27;;;;;;;;;;5864608;28;20051;-74
2023/08/15 06:48:09;;;;;;;2.78;1.40;;;;;;;;;;5864741;28;20042;-74
2023/08/15 06:51:07;;;;;;;2.20;1.15;;;;;;;;;;5864706;28;20046;-74
2023/08/15 06:53:57;;;;;;;1.40;1.20;;;;;;;;;;5847043;28;20472;-74
2023/08/15 06:56:54;;;;;;;2.42;1.15;;;;;;;;;;5864408;28;20764;-74
2023/08/15 06:59:45;;;;;;;3.60;1.40;;;;;;;;;;5864469;28;20057;-74
2023/08/15 07:02:43;;;;;;;3.13;1.20;;;;;;;;;;5847751;28;20046;-74
2023/08/15 07:05:34;;;;;;;1.83;0.90;;;;;;;;;;5864559;28;20386;-74
2023/08/15 07:08:32;;;;;;;2.40;1.00;;;;;;;;;;5846453;28;20048;-74
2023/08/15 07:11:22;;;;;;;2.17;1.30;;;;;;;;;;5837342;28;20042;-73
2023/08/15 07:14:19;;;;;;;6.55;1.33;;;;;;;;;;5862786;28;20053;-74
2023/08/15 07:17:10;;;;;;;2.55;1.45;;;;;;;;;;5845876;28;20053;-75
2023/08/15 07:20:09;;;;;;;;;;;;;;;;;;5864222;28;20140;-74
2023/08/15 07:23:00;;;;;;;1.77;0.95;;;;;;;;;;5846428;28;19928;-75
2023/08/15 07:25:57;;;;;;;2.63;1.00;;;;;;;;;;5867545;28;20042;-74
2023/08/15 07:28:48;;;;;;;1.90;0.93;;;;;;;;;;5863116;28;20131;-74
2023/08/15 07:31:45;;;;;;;;;;;;;;;;;;5863571;28;20056;-74
2023/08/15 07:34:37;;;;;;;1.15;0.93;;;;;;;;;;5863369;28;20329;-74
2023/08/15 07:37:34;;;;;;;0.70;0.70;;;;;;;;;;5862451;28;20227;-73
2023/08/15 07:40:26;;;;;;;2.22;0.95;;;;;;;;;;5845645;28;20049;-74
2023/08/15 07:43:23;;;;;;;;;;;;;;;;;;5863092;28;20063;-74
2023/08/15 07:46:14;;;;;;;1.23;1.10;;;;;;;;;;5875306;28;19928;-74
2023/08/15 07:49:12;;;;;;;1.20;0.95;;;;;;;;;;5869328;28;20488;-74
2023/08/15 07:52:03;;;;;;;1.10;0.82;;;;;;;;;;5839188;28;20049;-74
2023/08/15 07:54:59;;;;;;;1.35;0.80;;;;;;;;;;5852048;28;20054;-74
2023/08/15 07:57:50;;;;;;;1.05;0.88;;;;;;;;;;5865474;28;20128;-75
2023/08/15 08:00:47;;;;;;;2.70;0.90;;;;;;;;;;5861028;28;20053;-74
2023/08/15 08:03:42;;;;;;;1.02;0.82;;;;;;;;;;5849318;28;20046;-74
2023/08/15 08:06:47;;;;;;;0.77;0.68;;;;;;;;;;5863406;28;20041;-74
2023/08/15 08:09:38;;;;;;;2.28;1.15;;;;;;;;;;5864683;28;20553;-75
2023/08/15 08:12:36;;;;;;;1.48;0.65;;;;;;;;;;5853429;28;20050;-74
2023/08/15 08:15:30;;;;;;;1.10;0.60;;;;;;;;;;5846805;28;20045;-74
2023/08/15 08:18:27;;;;;;;2.05;0.82;;;;;;;;;;5825696;28;20513;-75
2023/08/15 08:21:18;;;;;;;0.35;0.35;;;;;;;;;;5855046;28;20152;-74
2023/08/15 08:24:15;;;;;;;2.58;1.00;;;;;;;;;;5864791;28;20060;-74
2023/08/15 08:27:06;;;;;;;2.50;1.15;;;;;;;;;;5863869;28;20038;-73
2023/08/15 08:30:04;;;;;;;;;;;;;;;;;;5865412;28;20045;-76
2023/08/15 08:32:55;;;;;;;0.70;0.70;;;;;;;;;;5863737;28;19925;-73
2023/08/15 08:35:52;;;;;;;1.40;0.50;;;;;;;;;;5864163;28;20049;-74
2023/08/15 08:38:49;;;;;;;0.93;0.60;;;;;;;;;;5864404;28;20049;-73
2023/08/15 08:41:41;;;;;;;0.38;0.30;;;;;;;;;;5864907;28;20492;-75
2023/08/15 08:44:39;;;;;;;0.70;0.55;;;;;;;;;;5863746;28;20046;-75
2023/08/15 08:47:32;;;;;;;3.40;1.05;;;;;;;;;;5823726;28;20058;-74
2023/08/15 08:50:30;;;;;;;1.48;0.80;;;;;;;;;;5824479;28;20484;-74
2023/08/15 08:53:21;;;;;;;0.50;0.30;;;;;;;;;;5867282;28;20067;-74
2023/08/15 08:56:22;;;;;;;2.72;0.85;;;;;;;;;;5824543;28;20053;-73
2023/08/15 08:59:16;;;;;;;1.23;0.60;;;;;;;;;;5840613;28;20042;-74
2023/08/15 09:02:19;;;;;;;0.57;0.50;;;;;;;;;;5834464;28;20044;-75
2023/08/15 09:05:11;;;;;;;0.57;0.45;;;;;;;;;;5855336;28;20132;-74
2023/08/15 09:08:08;;;;;;;14.85;0.90;;;;;;;;;;5841185;28;20489;-74
2023/08/15 09:11:02;;;;;;;0.88;0.45;;;;;;;;;;5789380;28;20064;-75
2023/08/15 09:14:03;;;;;;;0.88;0.47;;;;;;;;;;5838652;28;20049;-73
2023/08/15 09:17:00;;;;;;;0.38;0.38;;;;;;;;;;5841356;28;20120;-75
2023/08/15 09:19:51;;;;;;;0.98;0.40;;;;;;;;;;5841317;28;20120;-73
2023/08/15 09:22:50;;;;;;;0.43;0.43;;;;;;;;;;5841057;28;20396;-73
2023/08/15 09:25:49;;;;;;;1.15;0.60;;;;;;;;;;5840276;28;20053;-74
2023/08/15 09:28:44;;;;;;;0.65;0.50;;;;;;;;;;5839731;28;20101;-74
2023/08/15 09:31:43;;;;;;;1.15;0.60;;;;;;;;;;5840436;28;20048;-74
2023/08/15 09:34:34;;;;;;;0.35;0.35;;;;;;;;;;5840878;28;20042;-74
2023/08/15 09:37:31;;;;;;;0.40;0.40;;;;;;;;;;5841094;28;20049;-73
2023/08/15 09:40:26;;;;;;;4.03;0.93;;;;;;;;;;5845446;28;20080;-73
2023/08/15 09:43:23;;;;;;;1.38;1.02;;;;;;;;;;5845415;28;20050;-74
2023/08/15 09:46:14;;;;;;;0.80;0.60;;;;;;;;;;5828333;28;20484;-74
2023/08/15 09:49:12;;;;;;;1.02;0.55;;;;;;;;;;5828866;28;20049;-74
2023/08/15 09:52:04;;;;;;;1.33;0.85;;;;;;;;;;5828581;28;20404;-74
2023/08/15 09:55:02;;;;;;;0.93;0.63;;;;;;;;;;5829597;28;20046;-74
2023/08/15 09:57:53;;;;;;;0.77;0.60;;;;;;;;;;5845372;28;20038;-74
2023/08/15 10:00:51;;;;;;;0.40;0.38;;;;;;;;;;5845421;28;20052;-73
2023/08/15 10:03:44;;;;;;;3.13;0.90;;;;;;;;;;5845203;28;20624;-74
2023/08/15 10:06:43;;;;;;;0.45;0.45;;;;;;;;;;5828856;28;20111;-75
2023/08/15 10:09:34;;;;;;;2.60;0.40;;;;;;;;;;5845069;28;20048;-73
2023/08/15 10:12:33;;;;;;;2.80;0.52;;;;;;;;;;5828203;28;20042;-73
2023/08/15 10:15:24;;;;;;;1.02;0.63;;;;;;;;;;5844899;28;20303;-74
2023/08/15 10:18:23;;;;;;;1.95;0.60;;;;;;;;;;5844507;28;20054;-74
2023/08/15 10:21:14;;;;;;;0.60;0.40;;;;;;;;;;5844916;28;20056;-74
2023/08/15 10:24:11;;;;;;;0.80;0.60;;;;;;;;;;5844716;28;20050;-73
2023/08/15 10:27:10;;;;;;;3.38;0.68;;;;;;;;;;5844783;28;20543;-74
2023/08/15 10:30:03;;;;;;;1.08;0.70;;;;;;;;;;5844864;28;20054;-73
2023/08/15 10:33:13;;;;;;;2.50;0.63;;;;;;;;;;5844663;28;20042;-73
2023/08/15 10:36:03;;;;;;;0.65;0.50;;;;;;;;;;5826683;28;20058;-73
2023/08/15 10:39:06;;;;;;;4.88;1.30;;;;;;;;;;5845128;28;20129;-74
2023/08/15 10:42:04;;;;;;;0.40;0.40;;;;;;;;;;5843896;28;20045;-74
2023/08/15 10:44:59;;;;;;;2.47;0.90;;;;;;;;;;5845122;28;20044;-74
2023/08/15 10:47:57;;;;;;;0.45;0.45;;;;;;;;;;5827747;28;20053;-74
2023/08/15 10:50:49;;;;;;;0.82;0.65;;;;;;;;;;5843587;28;20046;-74
2023/08/15 10:53:58;;;;;;;1.52;0.68;;;;;;;;;;5827490;28;20049;-73
2023/08/15 10:56:50;;;;;;;0.57;0.57;;;;;;;;;;5826815;28;20042;-74
2023/08/15 10:59:46;;;;;;;1.23;0.77;;;;;;;;;;5827363;28;20050;-74
2023/08/15 11:02:37;;;;;;;0.70;0.60;;;;;;;;;;5843659;28;20408;-73
2023/08/15 11:05:35;;;;;;;1.45;0.47;;;;;;;;;;5843881;28;20042;-73
2023/08/15 11:08:25;;;;;;;1.73;0.93;;;;;;;;;;5843697;28;20046;-74
2023/08/15 11:11:23;;;;;;;;;;;;;;;;;;5827466;28;20530;-74
2023/08/15 11:14:16;;;;;;;2.72;0.43;;;;;;;;;;5843442;28;19943;-74
2023/08/15 11:17:13;;;;;;;0.85;0.60;;;;;;;;;;5843656;28;20049;-74
2023/08/15 11:20:06;;;;;;;0.55;0.38;;;;;;;;;;5826296;28;20050;-73
2023/08/15 11:23:03;;;;;;;1.77;0.68;;;;;;;;;;5843499;28;20049;-73
2023/08/15 11:26:00;;;;;;;1.63;0.40;;;;;;;;;;5843665;28;20400;-74
2023/08/15 11:28:58;;;;;;;1.75;0.63;;;;;;;;;;5843913;28;20204;-73
2023/08/15 11:31:52;;;;;;;0.60;0.57;;;;;;;;;;5843360;28;20046;-73
2023/08/15 11:34:50;;;;;;;0.68;0.63;;;;;;;;;;5843632;28;20381;-73
2023/08/15 11:37:41;;;;;;;1.10;0.52;;;;;;;;;;5825568;28;20046;-73
2023/08/15 11:40:39;;;;;;;2.20;0.85;;;;;;;;;;5842960;28;20046;-75
2023/08/15 11:43:30;;;;;;;3.65;1.35;;;;;;;;;;5842786;28;20050;-73
2023/08/15 11:46:27;;;;;;;1.42;0.82;;;;;;;;;;5842539;28;20053;-73
2023/08/15 11:49:31;;;;;;;14.27;0.77;;;;;;;;;;5842310;28;20054;-73
2023/08/15 11:52:42;;;;;;;;;;;;;;;;;;5843131;28;20434;-74
2023/08/15 11:55:36;;;;;;;2.03;0.60;;;;;;;;;;5825393;28;20356;-73
2023/08/15 11:58:33;;;;;;;2.75;1.15;;;;;;;;;;5836142;28;20057;-73
2023/08/15 12:01:27;;;;;;;1.38;0.50;;;;;;;;;;5817535;28;20050;-73
2023/08/15 12:04:24;;;;;;;1.33;0.85;;;;;;;;;;5836459;28;20050;-74
2023/08/15 12:07:21;;;;;;;0.80;0.65;;;;;;;;;;5836123;28;20045;-75
2023/08/15 12:10:15;;;;;;;18.60;1.05;;;;;;;;;;5836650;28;20056;-73
2023/08/15 12:13:13;;;;;;;0.43;0.40;;;;;;;;;;5835812;28;20042;-73
2023/08/15 12:16:06;;;;;;;0.52;0.40;;;;;;;;;;5835567;28;20049;-73
2023/08/15 12:19:03;;;;;;;1.42;0.65;;;;;;;;;;5836008;28;20192;-73
2023/08/15 12:21:53;;;;;;;1.38;0.45;;;;;;;;;;5835224;28;20057;-73
2023/08/15 12:24:50;;;;;;;1.42;0.63;;;;;;;;;;5836297;28;20141;-73
2023/08/15 12:27:41;;;;;;;0.95;0.70;;;;;;;;;;5835736;28;20175;-73
2023/08/15 12:30:39;;;;;;;3.55;0.63;;;;;;;;;;5835327;28;20050;-73
2023/08/15 12:33:33;;;;;;;0.68;0.50;;;;;;;;;;5818375;28;20410;-73
2023/08/15 12:36:37;;;;;;;1.58;0.63;;;;;;;;;;5835803;28;20623;-73
2023/08/15 12:39:28;;;;;;;1.35;0.55;;;;;;;;;;5835167;28;20432;-73
2023/08/15 12:42:26;;;;;;;1.48;0.80;;;;;;;;;;5835555;28;20052;-73
2023/08/15 12:45:17;;;;;;;1.60;0.98;;;;;;;;;;5835036;28;20077;-73
2023/08/15 12:48:15;;;;;;;0.80;0.65;;;;;;;;;;5834861;28;20133;-73
2023/08/15 12:51:06;;;;;;;1.98;0.50;;;;;;;;;;5835448;28;20145;-73
2023/08/15 12:54:04;;;;;;;1.15;0.95;;;;;;;;;;5835090;28;20124;-73
2023/08/15 12:56:55;;;;;;;1.10;0.70;;;;;;;;;;5834802;28;20129;-74
2023/08/15 12:59:52;;;;;;;3.05;0.80;;;;;;;;;;5834996;28;20129;-74
2023/08/15 13:02:43;;;;;;;0.35;0.32;;;;;;;;;;5834746;28;20046;-74
2023/08/15 13:05:40;;;;;;;1.58;0.75;;;;;;;;;;5834779;28;20058;-73
2023/08/15 13:08:31;;;;;;;0.35;0.32;;;;;;;;;;5834811;28;20065;-74
2023/08/15 13:11:28;;;;;;;0.93;0.57;;;;;;;;;;5818014;28;20046;-74
2023/08/15 13:14:25;;;;;;;0.70;0.50;;;;;;;;;;5834845;28;20049;-74
2023/08/15 13:17:23;;;;;;;1.13;0.43;;;;;;;;;;5834622;28;20048;-73
2023/08/15 13:20:20;;;;;;;1.25;0.47;;;;;;;;;;5818081;28;20050;-73
2023/08/15 13:23:11;;;;;;;0.88;0.45;;;;;;;;;;5834527;28;20717;-73
2023/08/15 13:26:08;;;;;;;0.77;0.77;;;;;;;;;;5834503;28;20060;-73
2023/08/15 13:29:06;;;;;;;0.60;0.50;;;;;;;;;;5834430;28;20038;-75
2023/08/15 13:31:56;;;;;;;0.77;0.55;;;;;;;;;;5834862;28;20053;-73
2023/08/15 13:34:53;;;;;;;0.82;0.40;;;;;;;;;;5834404;28;20046;-73
2023/08/15 13:37:44;;;;;;;0.70;0.50;;;;;;;;;;5834569;28;20058;-73
2023/08/15 13:40:41;;;;;;;0.40;0.38;;;;;;;;;;5817815;28;20107;-74
2023/08/15 13:43:35;;;;;;;0.60;0.60;;;;;;;;;;5816627;28;20072;-74
2023/08/15 13:46:32;;;;;;;1.38;0.95;;;;;;;;;;5834429;28;20046;-74
2023/08/15 13:49:23;;;;;;;0.85;0.50;;;;;;;;;;5834351;28;20060;-74
2023/08/15 13:52:20;;;;;;;3.95;0.70;;;;;;;;;;5834969;28;20060;-74
2023/08/15 13:55:12;;;;;;;3.03;1.20;;;;;;;;;;5816793;28;20133;-74
2023/08/15 13:58:09;;;;;;;0.10;0.10;;;;;;;;;;5834295;28;20069;-73
2023/08/15 14:01:00;;;;;;;0.63;0.55;;;;;;;;;;5834468;28;20044;-74
2023/08/15 14:03:57;;;;;;;0.68;0.40;;;;;;;;;;5834549;28;20053;-73
2023/08/15 14:06:48;;;;;;;1.20;0.80;;;;;;;;;;5834111;28;20428;-73
2023/08/15 14:09:45;;;;;;;1.67;0.50;;;;;;;;;;5834110;28;20528;-73
2023/08/15 14:12:36;;;;;;;0.52;0.40;;;;;;;;;;5834630;28;20144;-73
2023/08/15 14:15:36;;;;;;;3.47;0.68;;;;;;;;;;5817310;28;20046;-74
2023/08/15 14:18:27;;;;;;;0.70;0.52;;;;;;;;;;5834670;28;20050;-74
2023/08/15 14:21:24;;;;;;;1.45;0.65;;;;;;;;;;5817754;28;20060;-73
2023/08/15 14:24:15;;;;;;;0.77;0.57;;;;;;;;;;5834377;28;20397;-73
2023/08/15 14:27:12;;;;;;;0.57;0.30;;;;;;;;;;5838563;28;20069;-73
2023/08/15 14:30:03;;;;;;;6.63;0.60;;;;;;;;;;5838189;28;20049;-74
2023/08/15 14:33:00;;;;;;;0.95;0.57;;;;;;;;;;5853628;28;20041;-74
2023/08/15 14:35:51;;;;;;;1.52;0.55;;;;;;;;;;5835891;28;20052;-73
2023/08/15 14:38:49;;;;;;;1.40;0.82;;;;;;;;;;5861063;28;20384;-74
2023/08/15 14:41:40;;;;;;;0.95;0.52;;;;;;;;;;5865505;28;20452;-75
2023/08/15 14:44:40;;;;;;;0.50;0.50;;;;;;;;;;5866197;28;20049;-75
2023/08/15 14:47:34;;;;;;;2.22;0.75;;;;;;;;;;5843423;28;20050;-74
2023/08/15 14:50:32;;;;;;;0.93;0.73;;;;;;;;;;5842386;28;20084;-75
2023/08/15 14:53:22;;;;;;;1.23;0.75;;;;;;;;;;5866972;28;20045;-75
2023/08/15 14:56:19;;;;;;;1.33;0.50;;;;;;;;;;5865576;28;20049;-75
2023/08/15 14:59:10;;;;;;;1.20;0.93;;;;;;;;;;5867069;28;20511;-76
2023/08/15 15:02:08;;;;;;;1.50;0.60;;;;;;;;;;5866930;28;20042;-76
2023/08/15 15:05:07;;;;;;;1.05;0.57;;;;;;;;;;5867075;28;20053;-75
2023/08/15 15:07:58;;;;;;;2.20;0.60;;;;;;;;;;5867623;28;20072;-75
2023/08/15 15:11:05;;;;;;;1.17;0.60;;;;;;;;;;5847521;28;20051;-74
2023/08/15 15:13:56;;;;;;;1.13;0.63;;;;;;;;;;5863754;28;20049;-76
2023/08/15 15:16:54;;;;;;;;;;;;;;;;;;5847440;28;20048;-75
2023/08/15 15:19:45;;;;;;;2.40;0.68;;;;;;;;;;5846036;28;19936;-75
2023/08/15 15:22:43;;;;;;;6.22;0.93;;;;;;;;;;5863529;28;20155;-75
2023/08/15 15:25:33;;;;;;;1.00;0.73;;;;;;;;;;5864523;28;20088;-75
2023/08/15 15:28:30;;;;;;;1.33;0.60;;;;;;;;;;5866404;28;20045;-75
2023/08/15 15:31:21;;;;;;;1.00;0.90;;;;;;;;;;5866394;28;20057;-75
2023/08/15 15:34:18;;;;;;;0.82;0.75;;;;;;;;;;5865990;28;20050;-75
2023/08/15 15:37:09;;;;;;;6.20;0.88;;;;;;;;;;5865170;28;20049;-74
2023/08/15 15:40:07;;;;;;;0.55;0.55;;;;;;;;;;5866281;28;20076;-74
2023/08/15 15:42:58;;;;;;;6.22;0.80;;;;;;;;;;5866697;28;20091;-74
2023/08/15 15:45:54;;;;;;;0.60;0.60;;;;;;;;;;5866331;28;20122;-75
2023/08/15 15:48:52;;;;;;;1.85;0.82;;;;;;;;;;5866079;28;20065;-75
2023/08/15 15:51:45;;;;;;;1.38;0.80;;;;;;;;;;5865965;28;20136;-75
2023/08/15 15:54:42;;;;;;;0.75;0.75;;;;;;;;;;5849343;28;20126;-74
2023/08/15 15:57:33;;;;;;;1.05;0.80;;;;;;;;;;5865856;28;20408;-75
2023/08/15 16:00:45;;;;;;;0.63;0.57;;;;;;;;;;5850134;28;20045;-75
2023/08/15 16:03:43;;;;;;;0.90;0.80;;;;;;;;;;5865638;28;20057;-74
2023/08/15 16:06:40;;;;;;;0.52;0.47;;;;;;;;;;5865477;28;20284;-76
2023/08/15 16:09:37;;;;;;;1.55;1.08;;;;;;;;;;5848832;28;20045;-74
2023/08/15 16:12:28;;;;;;;2.42;0.90;;;;;;;;;;5865218;28;20052;-76
2023/08/15 16:15:25;;;;;;;2.28;0.93;;;;;;;;;;5848540;28;20041;-75
2023/08/15 16:18:16;;;;;;;0.55;0.55;;;;;;;;;;5865234;28;20499;-74
2023/08/15 16:21:15;;;;;;;9.02;0.95;;;;;;;;;;5865166;28;20052;-74
2023/08/15 16:24:08;;;;;;;1.95;0.98;;;;;;;;;;5865047;28;20053;-75
2023/08/15 16:27:05;;;;;;;0.65;0.60;;;;;;;;;;5865255;28;20064;-75
2023/08/15 16:29:56;;;;;;;0.93;0.70;;;;;;;;;;5865907;28;20045;-74
2023/08/15 16:33:06;;;;;;;0.98;0.70;;;;;;;;;;5858732;28;20511;-75
2023/08/15 16:35:57;;;;;;;0.73;0.60;;;;;;;;;;5847892;28;20038;-74
2023/08/15 16:38:54;;;;;;;0.77;0.65;;;;;;;;;;5865191;28;20043;-75
2023/08/15 16:41:45;;;;;;;1.48;1.00;;;;;;;;;;5847260;28;20066;-75
2023/08/15 16:44:42;;;;;;;1.30;0.70;;;;;;;;;;5864904;28;20049;-75
2023/08/15 16:47:33;;;;;;;0.70;0.70;;;;;;;;;;5864397;28;20381;-77
2023/08/15 16:50:30;;;;;;;1.42;1.33;;;;;;;;;;5864667;28;20408;-75
2023/08/15 16:53:21;;;;;;;2.33;0.70;;;;;;;;;;5864617;28;20057;-74
2023/08/15 16:56:18;;;;;;;0.70;0.70;;;;;;;;;;5864869;28;20057;-75
2023/08/15 16:59:09;;;;;;;1.23;0.73;;;;;;;;;;5864573;28;20052;-75
2023/08/15 17:02:06;;;;;;;3.72;1.00;;;;;;;;;;5864629;28;20501;-74
2023/08/15 17:04:57;;;;;;;0.70;0.60;;;;;;;;;;5847535;28;20046;-74
2023/08/15 17:07:54;;;;;;;0.93;0.73;;;;;;;;;;5864701;28;20042;-75
2023/08/15 17:10:51;;;;;;;2.77;0.70;;;;;;;;;;5864689;28;20041;-76
2023/08/15 17:13:42;;;;;;;1.67;0.65;;;;;;;;;;5864489;28;20048;-76
2023/08/15 17:16:39;;;;;;;0.70;0.70;;;;;;;;;;5864377;28;20049;-76
2023/08/15 17:19:30;;;;;;;2.63;1.20;;;;;;;;;;5864411;28;20072;-75
2023/08/15 17:22:31;;;;;;;3.92;1.17;;;;;;;;;;5864460;28;20133;-74
2023/08/15 17:25:22;;;;;;;1.50;0.90;;;;;;;;;;5864234;28;20056;-75
2023/08/15 17:28:19;;;;;;;1.58;0.88;;;;;;;;;;5864209;28;20511;-74
2023/08/15 17:31:11;;;;;;;1.60;0.80;;;;;;;;;;5864213;28;20049;-75
2023/08/15 17:34:08;;;;;;;3.33;1.08;;;;;;;;;;5864070;28;20120;-75